createdAt,value
2017-04-07T00:00:18.730Z,0
2017-04-07T00:01:18.702Z,0
2017-04-07T00:02:18.690Z,0
2017-04-07T00:03:18.676Z,0
2017-04-07T00:04:18.668Z,0
2017-04-07T00:05:18.658Z,0
2017-04-07T00:06:18.652Z,0
2017-04-07T00:07:18.641Z,0
2017-04-07T00:08:18.629Z,0
2017-04-07T00:09:18.868Z,0
2017-04-07T00:10:18.611Z,0
2017-04-07T00:11:18.606Z,0
2017-04-07T00:12:18.316Z,0
2017-04-07T00:13:18.584Z,0
2017-04-07T00:14:18.874Z,0
2017-04-07T00:15:18.569Z,0
2017-04-07T00:16:18.563Z,0
2017-04-07T00:17:18.545Z,0
2017-04-07T00:18:18.537Z,0
2017-04-07T00:19:18.777Z,0
2017-04-07T00:20:18.521Z,0
2017-04-07T00:21:18.514Z,0
2017-04-07T00:22:18.507Z,0
2017-04-07T00:23:18.496Z,0
2017-04-07T00:24:18.511Z,0
2017-04-07T00:25:18.474Z,0
2017-04-07T00:26:18.469Z,0
2017-04-07T00:27:18.187Z,0
2017-04-07T00:28:18.143Z,0
2017-04-07T00:29:18.741Z,0
2017-04-07T00:30:18.432Z,0
2017-04-07T00:31:18.419Z,0
2017-04-07T00:32:18.413Z,0
2017-04-07T00:33:18.402Z,0
2017-04-07T00:34:18.690Z,0
2017-04-07T00:35:18.386Z,0
2017-04-07T00:36:18.377Z,0
2017-04-07T00:37:18.361Z,0
2017-04-07T00:38:18.351Z,0
2017-04-07T00:39:18.612Z,0
2017-04-07T00:40:18.034Z,0
2017-04-07T00:41:18.027Z,0
2017-04-07T00:42:18.013Z,0
2017-04-07T00:43:18.338Z,0
2017-04-07T00:44:18.545Z,0
2017-04-07T00:45:18.290Z,0
2017-04-07T00:46:18.277Z,0
2017-04-07T00:47:18.268Z,0
2017-04-07T00:48:17.955Z,0
2017-04-07T00:49:18.600Z,0
2017-04-07T00:50:17.936Z,0
2017-04-07T00:51:17.927Z,0
2017-04-07T00:52:18.243Z,0
2017-04-07T00:53:18.211Z,0
2017-04-07T00:54:18.501Z,0
2017-04-07T00:55:18.191Z,0
2017-04-07T00:56:18.182Z,0
2017-04-07T00:57:18.176Z,0
2017-04-07T00:58:18.163Z,0
2017-04-07T00:59:18.454Z,0
2017-04-07T01:00:18.142Z,0
2017-04-07T01:01:18.136Z,0
2017-04-07T01:02:18.132Z,0
2017-04-07T01:03:18.120Z,0
2017-04-07T01:04:17.800Z,0
2017-04-07T01:05:18.394Z,0
2017-04-07T01:06:18.089Z,0
2017-04-07T01:07:18.075Z,0
2017-04-07T01:08:18.070Z,0
2017-04-07T01:09:18.060Z,0
2017-04-07T01:10:18.346Z,0
2017-04-07T01:11:17.733Z,0
2017-04-07T01:12:17.728Z,0
2017-04-07T01:13:17.713Z,0
2017-04-07T01:14:18.011Z,0
2017-04-07T01:15:18.301Z,0
2017-04-07T01:16:17.987Z,0
2017-04-07T01:17:17.977Z,0
2017-04-07T01:18:17.972Z,0
2017-04-07T01:19:17.958Z,0
2017-04-07T01:20:17.898Z,0
2017-04-07T01:21:17.943Z,0
2017-04-07T01:22:17.930Z,0
2017-04-07T01:23:17.929Z,0
2017-04-07T01:24:17.604Z,0
2017-04-07T01:25:18.156Z,0
2017-04-07T01:26:17.587Z,0
2017-04-07T01:27:17.886Z,0
2017-04-07T01:28:17.873Z,0
2017-04-07T01:29:17.861Z,0
2017-04-07T01:30:17.802Z,0
2017-04-07T01:31:17.838Z,0
2017-04-07T01:32:17.836Z,0
2017-04-07T01:33:17.518Z,0
2017-04-07T01:34:17.810Z,0
2017-04-07T01:35:18.155Z,0
2017-04-07T01:36:17.792Z,0
2017-04-07T01:37:17.783Z,0
2017-04-07T01:38:17.473Z,0
2017-04-07T01:39:17.760Z,0
2017-04-07T01:40:18.004Z,0
2017-04-07T01:41:17.745Z,0
2017-04-07T01:42:17.736Z,0
2017-04-07T01:43:17.723Z,0
2017-04-07T01:44:17.718Z,0
2017-04-07T01:45:18.009Z,0
2017-04-07T01:46:17.701Z,0
2017-04-07T01:47:17.687Z,0
2017-04-07T01:48:17.376Z,0
2017-04-07T01:49:17.672Z,0
2017-04-07T01:50:17.959Z,0
2017-04-07T01:51:17.646Z,0
2017-04-07T01:52:17.635Z,0
2017-04-07T01:53:17.324Z,0
2017-04-07T01:54:17.313Z,0
2017-04-07T01:55:17.860Z,0
2017-04-07T01:56:17.603Z,0
2017-04-07T01:57:17.586Z,0
2017-04-07T01:58:17.579Z,0
2017-04-07T01:59:17.271Z,0
2017-04-07T02:00:17.809Z,0
2017-04-07T02:01:17.551Z,0
2017-04-07T02:02:17.543Z,0
2017-04-07T02:03:17.536Z,0
2017-04-07T02:04:17.519Z,0
2017-04-07T02:05:17.767Z,0
2017-04-07T02:06:17.528Z,0
2017-04-07T02:07:17.490Z,0
2017-04-07T02:08:17.478Z,0
2017-04-07T02:09:17.475Z,0
2017-04-07T02:10:17.817Z,0
2017-04-07T02:11:17.452Z,0
2017-04-07T02:12:17.443Z,0
2017-04-07T02:13:17.435Z,0
2017-04-07T02:14:17.427Z,0
2017-04-07T02:15:17.410Z,0
2017-04-07T02:16:17.404Z,0
2017-04-07T02:17:17.390Z,0
2017-04-07T02:18:17.087Z,0
2017-04-07T02:19:17.370Z,0
2017-04-07T02:20:17.666Z,0
2017-04-07T02:21:17.356Z,0
2017-04-07T02:22:17.345Z,0
2017-04-07T02:23:17.337Z,0
2017-04-07T02:24:17.325Z,0
2017-04-07T02:25:17.565Z,0
2017-04-07T02:26:17.009Z,0
2017-04-07T02:27:16.991Z,0
2017-04-07T02:28:17.286Z,0
2017-04-07T02:29:17.279Z,0
2017-04-07T02:30:17.523Z,0
2017-04-07T02:31:17.271Z,0
2017-04-07T02:32:17.249Z,0
2017-04-07T02:33:17.278Z,0
2017-04-07T02:34:17.226Z,0
2017-04-07T02:35:17.515Z,0
2017-04-07T02:36:17.208Z,0
2017-04-07T02:37:17.202Z,0
2017-04-07T02:38:17.191Z,0
2017-04-07T02:39:17.178Z,0
2017-04-07T02:40:17.469Z,0
2017-04-07T02:41:17.158Z,0
2017-04-07T02:42:16.846Z,0
2017-04-07T02:43:17.141Z,0
2017-04-07T02:44:17.136Z,0
2017-04-07T02:45:17.372Z,0
2017-04-07T02:46:17.111Z,0
2017-04-07T02:47:17.099Z,0
2017-04-07T02:48:17.094Z,0
2017-04-07T02:49:17.082Z,0
2017-04-07T02:50:17.423Z,0
2017-04-07T02:51:17.061Z,0
2017-04-07T02:52:17.052Z,0
2017-04-07T02:53:17.041Z,0
2017-04-07T02:54:16.729Z,0
2017-04-07T02:55:17.274Z,0
2017-04-07T02:56:17.017Z,0
2017-04-07T02:57:17.001Z,0
2017-04-07T02:58:16.992Z,0
2017-04-07T02:59:16.982Z,0
2017-04-07T03:00:17.275Z,0
2017-04-07T03:01:16.967Z,0
2017-04-07T03:02:16.655Z,0
2017-04-07T03:03:16.944Z,0
2017-04-07T03:04:16.630Z,0
2017-04-07T03:05:17.179Z,0
2017-04-07T03:06:16.617Z,0
2017-04-07T03:07:16.910Z,0
2017-04-07T03:08:16.899Z,0
2017-04-07T03:09:16.886Z,0
2017-04-07T03:10:17.138Z,0
2017-04-07T03:11:16.873Z,0
2017-04-07T03:12:16.859Z,0
2017-04-07T03:13:16.848Z,0
2017-04-07T03:14:16.874Z,0
2017-04-07T03:15:17.080Z,0
2017-04-07T03:16:16.515Z,0
2017-04-07T03:17:16.809Z,0
2017-04-07T03:18:16.799Z,0
2017-04-07T03:19:16.485Z,0
2017-04-07T03:20:16.731Z,0
2017-04-07T03:21:16.772Z,0
2017-04-07T03:22:16.763Z,0
2017-04-07T03:23:16.753Z,0
2017-04-07T03:24:16.745Z,0
2017-04-07T03:25:17.037Z,0
2017-04-07T03:26:16.746Z,0
2017-04-07T03:27:16.715Z,0
2017-04-07T03:28:16.706Z,0
2017-04-07T03:29:16.698Z,0
2017-04-07T03:30:17.040Z,0
2017-04-07T03:31:16.679Z,0
2017-04-07T03:32:16.673Z,0
2017-04-07T03:33:16.656Z,0
2017-04-07T03:34:16.649Z,0
2017-04-07T03:35:16.900Z,0
2017-04-07T03:36:16.650Z,0
2017-04-07T03:37:16.618Z,0
2017-04-07T03:38:16.610Z,0
2017-04-07T03:39:16.600Z,0
2017-04-07T03:40:16.891Z,0
2017-04-07T03:41:16.579Z,0
2017-04-07T03:42:16.572Z,0
2017-04-07T03:43:16.558Z,0
2017-04-07T03:44:16.245Z,0
2017-04-07T03:45:16.840Z,0
2017-04-07T03:46:16.529Z,0
2017-04-07T03:47:16.547Z,0
2017-04-07T03:48:16.512Z,0
2017-04-07T03:49:16.496Z,0
2017-04-07T03:50:15.884Z,0
2017-04-07T03:51:16.476Z,0
2017-04-07T03:52:16.475Z,0
2017-04-07T03:53:16.460Z,0
2017-04-07T03:54:16.450Z,0
2017-04-07T03:55:16.441Z,0
2017-04-07T03:56:16.782Z,0
2017-04-07T03:57:16.421Z,0
2017-04-07T03:58:16.415Z,0
2017-04-07T03:59:16.405Z,0
2017-04-07T04:00:16.397Z,0
2017-04-07T04:01:16.685Z,0
2017-04-07T04:02:16.376Z,0
2017-04-07T04:03:16.063Z,0
2017-04-07T04:04:16.354Z,0
2017-04-07T04:05:16.345Z,0
2017-04-07T04:06:16.583Z,0
2017-04-07T04:07:16.328Z,0
2017-04-07T04:08:16.322Z,0
2017-04-07T04:09:16.312Z,0
2017-04-07T04:10:15.997Z,0
2017-04-07T04:11:16.541Z,0
2017-04-07T04:12:15.973Z,0
2017-04-07T04:13:15.966Z,0
2017-04-07T04:14:16.257Z,0
2017-04-07T04:15:16.251Z,0
2017-04-07T04:16:16.235Z,0
2017-04-07T04:17:15.622Z,0
2017-04-07T04:18:15.923Z,0
2017-04-07T04:19:16.208Z,0
2017-04-07T04:20:16.196Z,0
2017-04-07T04:21:16.445Z,0
2017-04-07T04:22:16.180Z,0
2017-04-07T04:23:16.173Z,0
2017-04-07T04:24:15.855Z,0
2017-04-07T04:25:16.148Z,0
2017-04-07T04:26:16.189Z,0
2017-04-07T04:27:16.130Z,0
2017-04-07T04:28:16.118Z,0
2017-04-07T04:29:16.113Z,0
2017-04-07T04:30:15.802Z,0
2017-04-07T04:31:16.342Z,0
2017-04-07T04:32:16.083Z,0
2017-04-07T04:33:16.075Z,0
2017-04-07T04:34:16.063Z,0
2017-04-07T04:35:16.083Z,0
2017-04-07T04:36:16.397Z,5
2017-04-07T04:37:15.739Z,0
2017-04-07T04:38:16.026Z,5
2017-04-07T04:39:16.012Z,5
2017-04-07T04:40:16.009Z,5
2017-04-07T04:41:16.304Z,5
2017-04-07T04:42:15.991Z,5
2017-04-07T04:43:15.978Z,5
2017-04-07T04:44:15.970Z,5
2017-04-07T04:45:15.965Z,5
2017-04-07T04:46:16.250Z,5
2017-04-07T04:47:15.634Z,5
2017-04-07T04:48:15.627Z,5
2017-04-07T04:49:15.919Z,5
2017-04-07T04:50:15.910Z,5
2017-04-07T04:51:16.149Z,5
2017-04-07T04:52:15.896Z,10
2017-04-07T04:53:15.891Z,10
2017-04-07T04:54:15.869Z,10
2017-04-07T04:55:15.861Z,10
2017-04-07T04:56:15.500Z,10
2017-04-07T04:57:15.841Z,10
2017-04-07T04:58:15.846Z,10
2017-04-07T04:59:15.824Z,10
2017-04-07T05:00:15.824Z,10
2017-04-07T05:01:16.104Z,10
2017-04-07T05:02:15.795Z,10
2017-04-07T05:03:15.784Z,10
2017-04-07T05:04:15.473Z,10
2017-04-07T05:05:15.768Z,10
2017-04-07T05:06:15.759Z,10
2017-04-07T05:07:16.001Z,15
2017-04-07T05:08:15.432Z,15
2017-04-07T05:09:15.728Z,15
2017-04-07T05:10:15.111Z,15
2017-04-07T05:11:15.710Z,15
2017-04-07T05:12:15.986Z,20
2017-04-07T05:13:15.688Z,20
2017-04-07T05:14:15.680Z,20
2017-04-07T05:15:15.389Z,15
2017-04-07T05:16:15.665Z,15
2017-04-07T05:17:15.906Z,15
2017-04-07T05:18:15.643Z,15
2017-04-07T05:19:15.640Z,15
2017-04-07T05:20:15.329Z,15
2017-04-07T05:21:15.613Z,15
2017-04-07T05:22:15.967Z,20
2017-04-07T05:23:15.596Z,20
2017-04-07T05:24:15.610Z,20
2017-04-07T05:25:15.577Z,20
2017-04-07T05:26:15.582Z,20
2017-04-07T05:27:15.858Z,20
2017-04-07T05:28:15.547Z,20
2017-04-07T05:29:15.568Z,20
2017-04-07T05:30:15.229Z,20
2017-04-07T05:31:15.521Z,20
2017-04-07T05:32:15.762Z,20
2017-04-07T05:33:15.503Z,20
2017-04-07T05:34:15.188Z,20
2017-04-07T05:35:15.486Z,20
2017-04-07T05:36:15.480Z,20
2017-04-07T05:37:15.720Z,20
2017-04-07T05:38:15.153Z,20
2017-04-07T05:39:15.447Z,25
2017-04-07T05:40:15.438Z,25
2017-04-07T05:41:15.425Z,25
2017-04-07T05:42:15.745Z,25
2017-04-07T05:43:15.409Z,25
2017-04-07T05:44:15.398Z,25
2017-04-07T05:45:15.395Z,25
2017-04-07T05:46:15.381Z,25
2017-04-07T05:47:15.637Z,30
2017-04-07T05:48:15.383Z,30
2017-04-07T05:49:15.355Z,30
2017-04-07T05:50:15.346Z,30
2017-04-07T05:51:15.341Z,30
2017-04-07T05:52:15.632Z,30
2017-04-07T05:53:15.316Z,35
2017-04-07T05:54:15.006Z,35
2017-04-07T05:55:15.300Z,35
2017-04-07T05:56:15.299Z,35
2017-04-07T05:57:15.537Z,35
2017-04-07T05:58:14.969Z,35
2017-04-07T05:59:15.265Z,40
2017-04-07T06:00:15.255Z,35
2017-04-07T06:01:14.948Z,40
2017-04-07T06:02:15.237Z,40
2017-04-07T06:03:15.228Z,45
2017-04-07T06:04:15.218Z,45
2017-04-07T06:05:15.208Z,45
2017-04-07T06:06:15.199Z,45
2017-04-07T06:07:15.542Z,50
2017-04-07T06:08:14.877Z,50
2017-04-07T06:09:14.892Z,50
2017-04-07T06:10:15.167Z,55
2017-04-07T06:11:15.152Z,55
2017-04-07T06:12:15.450Z,60
2017-04-07T06:13:15.138Z,65
2017-04-07T06:14:15.124Z,60
2017-04-07T06:15:14.813Z,65
2017-04-07T06:16:14.807Z,65
2017-04-07T06:17:15.101Z,65
2017-04-07T06:18:15.034Z,70
2017-04-07T06:19:15.079Z,75
2017-04-07T06:20:14.771Z,75
2017-04-07T06:21:15.068Z,80
2017-04-07T06:22:14.765Z,75
2017-04-07T06:23:15.292Z,75
2017-04-07T06:24:15.044Z,75
2017-04-07T06:25:14.728Z,75
2017-04-07T06:26:14.718Z,75
2017-04-07T06:27:14.704Z,80
2017-04-07T06:28:15.302Z,85
2017-04-07T06:29:15.023Z,75
2017-04-07T06:30:14.986Z,75
2017-04-07T06:31:14.972Z,90
2017-04-07T06:32:14.974Z,80
2017-04-07T06:33:15.210Z,80
2017-04-07T06:34:14.946Z,80
2017-04-07T06:35:14.941Z,85
2017-04-07T06:36:14.952Z,75
2017-04-07T06:37:14.922Z,75
2017-04-07T06:38:15.261Z,90
2017-04-07T06:39:14.900Z,85
2017-04-07T06:40:14.891Z,85
2017-04-07T06:41:14.878Z,85
2017-04-07T06:42:14.871Z,80
2017-04-07T06:43:14.861Z,80
2017-04-07T06:44:14.858Z,80
2017-04-07T06:45:14.845Z,90
2017-04-07T06:46:14.837Z,85
2017-04-07T06:47:14.829Z,80
2017-04-07T06:48:15.070Z,80
2017-04-07T06:49:14.506Z,80
2017-04-07T06:50:14.801Z,75
2017-04-07T06:51:14.799Z,70
2017-04-07T06:52:14.483Z,70
2017-04-07T06:53:15.122Z,65
2017-04-07T06:54:14.163Z,65
2017-04-07T06:55:14.757Z,65
2017-04-07T06:56:14.449Z,60
2017-04-07T06:57:14.763Z,65
2017-04-07T06:58:14.988Z,65
2017-04-07T06:59:14.718Z,70
2017-04-07T07:00:14.106Z,70
2017-04-07T07:01:14.702Z,75
2017-04-07T07:02:14.393Z,75
2017-04-07T07:03:14.935Z,70
2017-04-07T07:04:14.674Z,80
2017-04-07T07:05:14.673Z,80
2017-04-07T07:06:14.661Z,80
2017-04-07T07:07:14.650Z,80
2017-04-07T07:08:14.991Z,85
2017-04-07T07:09:14.634Z,85
2017-04-07T07:10:14.623Z,80
2017-04-07T07:11:14.615Z,85
2017-04-07T07:12:14.605Z,85
2017-04-07T07:13:14.893Z,90
2017-04-07T07:14:14.280Z,85
2017-04-07T07:15:14.575Z,85
2017-04-07T07:16:14.265Z,80
2017-04-07T07:17:14.566Z,85
2017-04-07T07:18:14.813Z,85
2017-04-07T07:19:14.541Z,85
2017-04-07T07:20:14.539Z,90
2017-04-07T07:21:14.523Z,95
2017-04-07T07:22:14.514Z,95
2017-04-07T07:23:14.198Z,95
2017-04-07T07:24:14.498Z,110
2017-04-07T07:25:14.485Z,110
2017-04-07T07:26:14.478Z,100
2017-04-07T07:27:14.478Z,95
2017-04-07T07:28:14.467Z,95
2017-04-07T07:29:14.456Z,85
2017-04-07T07:30:14.444Z,80
2017-04-07T07:31:14.433Z,80
2017-04-07T07:32:14.421Z,95
2017-04-07T07:33:14.764Z,110
2017-04-07T07:34:14.409Z,105
2017-04-07T07:35:14.106Z,100
2017-04-07T07:36:14.086Z,135
2017-04-07T07:37:14.081Z,145
2017-04-07T07:38:14.671Z,120
2017-04-07T07:39:14.361Z,110
2017-04-07T07:40:14.353Z,110
2017-04-07T07:41:14.349Z,110
2017-04-07T07:42:14.336Z,105
2017-04-07T07:43:14.273Z,115
2017-04-07T07:44:14.019Z,105
2017-04-07T07:45:14.313Z,115
2017-04-07T07:46:14.301Z,135
2017-04-07T07:47:14.293Z,150
2017-04-07T07:48:14.282Z,135
2017-04-07T07:49:13.879Z,125
2017-04-07T07:50:14.614Z,145
2017-04-07T07:51:14.256Z,140
2017-04-07T07:52:14.252Z,140
2017-04-07T07:53:14.218Z,115
2017-04-07T07:54:14.231Z,120
2017-04-07T07:55:14.221Z,130
2017-04-07T07:56:14.237Z,130
2017-04-07T07:57:14.208Z,125
2017-04-07T07:58:14.191Z,120
2017-04-07T07:59:14.194Z,125
2017-04-07T08:00:14.179Z,130
2017-04-07T08:01:14.175Z,125
2017-04-07T08:02:14.160Z,135
2017-04-07T08:03:14.412Z,125
2017-04-07T08:04:14.149Z,140
2017-04-07T08:05:14.137Z,155
2017-04-07T08:06:14.147Z,145
2017-04-07T08:07:14.127Z,135
2017-04-07T08:08:14.418Z,135
2017-04-07T08:09:14.106Z,145
2017-04-07T08:10:14.098Z,145
2017-04-07T08:11:14.093Z,150
2017-04-07T08:12:14.077Z,150
2017-04-07T08:13:14.318Z,150
2017-04-07T08:14:13.763Z,150
2017-04-07T08:15:14.055Z,140
2017-04-07T08:16:14.050Z,155
2017-04-07T08:17:13.735Z,150
2017-04-07T08:18:13.972Z,165
2017-04-07T08:19:14.022Z,165
2017-04-07T08:20:14.011Z,180
2017-04-07T08:21:13.704Z,185
2017-04-07T08:22:13.997Z,160
2017-04-07T08:23:14.255Z,185
2017-04-07T08:24:13.981Z,180
2017-04-07T08:25:13.967Z,185
2017-04-07T08:26:13.354Z,205
2017-04-07T08:27:13.955Z,215
2017-04-07T08:28:14.196Z,200
2017-04-07T08:29:13.944Z,190
2017-04-07T08:30:13.929Z,175
2017-04-07T08:31:13.923Z,170
2017-04-07T08:32:13.928Z,180
2017-04-07T08:33:13.909Z,185
2017-04-07T08:34:13.898Z,170
2017-04-07T08:35:13.897Z,190
2017-04-07T08:36:13.905Z,195
2017-04-07T08:37:13.571Z,185
2017-04-07T08:38:13.814Z,190
2017-04-07T08:39:13.860Z,175
2017-04-07T08:40:13.859Z,190
2017-04-07T08:41:13.844Z,185
2017-04-07T08:42:13.836Z,195
2017-04-07T08:43:14.183Z,190
2017-04-07T08:44:13.843Z,180
2017-04-07T08:45:13.814Z,185
2017-04-07T08:46:13.812Z,185
2017-04-07T08:47:13.800Z,180
2017-04-07T08:48:14.069Z,185
2017-04-07T08:49:13.481Z,190
2017-04-07T08:50:13.779Z,215
2017-04-07T08:51:13.768Z,205
2017-04-07T08:52:13.765Z,200
2017-04-07T08:53:14.001Z,220
2017-04-07T08:54:13.441Z,220
2017-04-07T08:55:13.759Z,225
2017-04-07T08:56:13.757Z,245
2017-04-07T08:57:13.722Z,240
2017-04-07T08:58:13.964Z,245
2017-04-07T08:59:14.058Z,255
2017-04-07T09:00:13.711Z,300
2017-04-07T09:01:13.393Z,265
2017-04-07T09:02:13.685Z,255
2017-04-07T09:03:13.926Z,255
2017-04-07T09:04:13.671Z,260
2017-04-07T09:05:13.667Z,255
2017-04-07T09:06:13.666Z,225
2017-04-07T09:07:13.655Z,275
2017-04-07T09:08:13.889Z,300
2017-04-07T09:09:13.634Z,305
2017-04-07T09:10:13.328Z,330
2017-04-07T09:11:13.623Z,295
2017-04-07T09:12:13.309Z,315
2017-04-07T09:13:13.956Z,345
2017-04-07T09:14:13.599Z,300
2017-04-07T09:15:13.597Z,325
2017-04-07T09:16:13.586Z,280
2017-04-07T09:17:13.578Z,255
2017-04-07T09:18:13.873Z,250
2017-04-07T09:19:13.565Z,295
2017-04-07T09:20:13.559Z,250
2017-04-07T09:21:13.556Z,255
2017-04-07T09:22:13.556Z,245
2017-04-07T09:23:13.787Z,225
2017-04-07T09:24:13.227Z,250
2017-04-07T09:25:13.533Z,225
2017-04-07T09:26:13.521Z,220
2017-04-07T09:27:13.515Z,190
2017-04-07T09:28:13.854Z,170
2017-04-07T09:29:13.496Z,215
2017-04-07T09:30:13.491Z,210
2017-04-07T09:31:13.494Z,205
2017-04-07T09:32:13.482Z,235
2017-04-07T09:33:13.721Z,225
2017-04-07T09:34:13.465Z,235
2017-04-07T09:35:13.461Z,250
2017-04-07T09:36:13.457Z,225
2017-04-07T09:37:13.446Z,225
2017-04-07T09:38:13.385Z,210
2017-04-07T09:39:13.438Z,200
2017-04-07T09:40:13.424Z,200
2017-04-07T09:41:13.427Z,190
2017-04-07T09:42:13.413Z,215
2017-04-07T09:43:13.655Z,200
2017-04-07T09:44:13.396Z,195
2017-04-07T09:45:13.397Z,215
2017-04-07T09:46:13.387Z,225
2017-04-07T09:47:13.381Z,240
2017-04-07T09:48:13.622Z,220
2017-04-07T09:49:13.366Z,195
2017-04-07T09:50:12.773Z,215
2017-04-07T09:51:13.350Z,200
2017-04-07T09:52:12.739Z,230
2017-04-07T09:53:13.674Z,195
2017-04-07T09:54:13.033Z,230
2017-04-07T09:55:13.026Z,265
2017-04-07T09:56:13.020Z,240
2017-04-07T09:57:13.029Z,255
2017-04-07T09:58:13.556Z,220
2017-04-07T09:59:13.297Z,230
2017-04-07T10:00:12.993Z,265
2017-04-07T10:01:12.980Z,260
2017-04-07T10:02:12.974Z,270
2017-04-07T10:03:12.969Z,285
2017-04-07T10:04:12.954Z,330
2017-04-07T10:05:12.957Z,330
2017-04-07T10:06:12.948Z,305
2017-04-07T10:07:13.245Z,320
2017-04-07T10:08:12.932Z,300
2017-04-07T10:09:13.186Z,295
2017-04-07T10:10:13.229Z,315
2017-04-07T10:11:12.911Z,325
2017-04-07T10:12:13.210Z,290
2017-04-07T10:13:13.201Z,345
2017-04-07T10:14:13.443Z,345
2017-04-07T10:15:13.192Z,335
2017-04-07T10:16:13.185Z,345
2017-04-07T10:17:13.176Z,345
2017-04-07T10:18:13.173Z,285
2017-04-07T10:19:13.414Z,335
2017-04-07T10:20:12.859Z,355
2017-04-07T10:21:13.151Z,330
2017-04-07T10:22:12.545Z,290
2017-04-07T10:23:12.837Z,320
2017-04-07T10:24:13.380Z,305
2017-04-07T10:25:13.158Z,365
2017-04-07T10:26:13.120Z,305
2017-04-07T10:27:13.115Z,295
2017-04-07T10:28:13.108Z,305
2017-04-07T10:29:13.400Z,265
2017-04-07T10:30:12.791Z,315
2017-04-07T10:31:12.786Z,355
2017-04-07T10:32:13.126Z,290
2017-04-07T10:33:13.079Z,290
2017-04-07T10:34:13.319Z,315
2017-04-07T10:35:12.763Z,305
2017-04-07T10:36:12.755Z,310
2017-04-07T10:37:12.745Z,380
2017-04-07T10:38:13.047Z,345
2017-04-07T10:39:13.343Z,395
2017-04-07T10:40:12.733Z,370
2017-04-07T10:41:13.032Z,400
2017-04-07T10:42:12.744Z,400
2017-04-07T10:43:13.017Z,355
2017-04-07T10:44:13.309Z,295
2017-04-07T10:45:12.702Z,330
2017-04-07T10:46:13.000Z,325
2017-04-07T10:47:12.999Z,275
2017-04-07T10:48:13.001Z,340
2017-04-07T10:49:13.279Z,390
2017-04-07T10:50:12.973Z,415
2017-04-07T10:51:12.970Z,390
2017-04-07T10:52:12.658Z,360
2017-04-07T10:53:12.954Z,350
2017-04-07T10:54:13.204Z,330
2017-04-07T10:55:12.949Z,340
2017-04-07T10:56:12.940Z,345
2017-04-07T10:57:12.955Z,350
2017-04-07T10:58:12.644Z,425
2017-04-07T10:59:13.222Z,455
2017-04-07T11:00:12.615Z,390
2017-04-07T11:01:12.913Z,415
2017-04-07T11:02:12.912Z,425
2017-04-07T11:03:12.904Z,425
2017-04-07T11:04:13.168Z,475
2017-04-07T11:05:12.889Z,475
2017-04-07T11:06:12.900Z,450
2017-04-07T11:07:12.880Z,495
2017-04-07T11:08:12.573Z,465
2017-04-07T11:09:13.120Z,410
2017-04-07T11:10:12.867Z,440
2017-04-07T11:11:12.868Z,480
2017-04-07T11:12:12.855Z,445
2017-04-07T11:13:12.861Z,365
2017-04-07T11:14:13.145Z,345
2017-04-07T11:15:12.845Z,390
2017-04-07T11:16:12.840Z,340
2017-04-07T11:17:12.839Z,310
2017-04-07T11:18:12.832Z,285
2017-04-07T11:19:12.771Z,295
2017-04-07T11:20:12.516Z,330
2017-04-07T11:21:12.824Z,380
2017-04-07T11:22:12.814Z,360
2017-04-07T11:23:12.505Z,375
2017-04-07T11:24:13.105Z,385
2017-04-07T11:25:12.799Z,355
2017-04-07T11:26:12.487Z,345
2017-04-07T11:27:12.988Z,335
2017-04-07T11:28:12.799Z,285
2017-04-07T11:29:13.128Z,330
2017-04-07T11:30:12.786Z,330
2017-04-07T11:31:12.766Z,320
2017-04-07T11:32:12.762Z,320
2017-04-07T11:33:12.769Z,280
2017-04-07T11:34:13.001Z,330
2017-04-07T11:35:12.756Z,345
2017-04-07T11:36:12.755Z,325
2017-04-07T11:37:12.434Z,340
2017-04-07T11:38:12.738Z,310
2017-04-07T11:39:12.983Z,345
2017-04-07T11:40:12.724Z,355
2017-04-07T11:41:12.718Z,345
2017-04-07T11:42:12.756Z,330
2017-04-07T11:43:12.718Z,300
2017-04-07T11:44:12.973Z,290
2017-04-07T11:45:12.703Z,295
2017-04-07T11:46:12.410Z,280
2017-04-07T11:47:12.695Z,270
2017-04-07T11:48:12.696Z,300
2017-04-07T11:49:12.988Z,310
2017-04-07T11:50:12.384Z,305
2017-04-07T11:51:12.683Z,285
2017-04-07T11:52:12.377Z,265
2017-04-07T11:53:12.662Z,265
2017-04-07T11:54:12.699Z,270
2017-04-07T11:55:12.352Z,300
2017-04-07T11:56:12.043Z,325
2017-04-07T11:57:12.642Z,375
2017-04-07T11:58:12.641Z,340
2017-04-07T11:59:12.882Z,290
2017-04-07T12:00:12.323Z,350
2017-04-07T12:01:12.623Z,455
2017-04-07T12:02:12.619Z,455
2017-04-07T12:03:12.615Z,415
2017-04-07T12:04:12.855Z,350
2017-04-07T12:05:12.613Z,320
2017-04-07T12:06:12.296Z,260
2017-04-07T12:07:12.592Z,290
2017-04-07T12:08:12.589Z,380
2017-04-07T12:09:12.832Z,455
2017-04-07T12:10:12.571Z,460
2017-04-07T12:11:12.573Z,360
2017-04-07T12:12:12.570Z,265
2017-04-07T12:13:12.562Z,280
2017-04-07T12:14:12.804Z,315
2017-04-07T12:15:12.551Z,295
2017-04-07T12:16:12.551Z,340
2017-04-07T12:17:12.547Z,370
2017-04-07T12:18:12.232Z,335
2017-04-07T12:19:12.833Z,340
2017-04-07T12:20:12.531Z,305
2017-04-07T12:21:12.219Z,305
2017-04-07T12:22:12.520Z,245
2017-04-07T12:23:12.512Z,230
2017-04-07T12:24:12.766Z,230
2017-04-07T12:25:11.900Z,205
2017-04-07T12:26:12.227Z,185
2017-04-07T12:27:12.497Z,255
2017-04-07T12:28:12.501Z,240
2017-04-07T12:29:12.835Z,205
2017-04-07T12:30:12.484Z,215
2017-04-07T12:31:12.482Z,240
2017-04-07T12:32:12.465Z,270
2017-04-07T12:33:12.463Z,200
2017-04-07T12:34:12.714Z,215
2017-04-07T12:35:12.451Z,255
2017-04-07T12:36:12.450Z,240
2017-04-07T12:37:12.444Z,205
2017-04-07T12:38:12.438Z,270
2017-04-07T12:39:12.738Z,250
2017-04-07T12:40:12.431Z,280
2017-04-07T12:41:12.781Z,270
2017-04-07T12:42:12.417Z,270
2017-04-07T12:43:12.414Z,340
2017-04-07T12:44:12.760Z,360
2017-04-07T12:45:12.105Z,365
2017-04-07T12:46:12.092Z,285
2017-04-07T12:47:12.394Z,360
2017-04-07T12:48:12.387Z,330
2017-04-07T12:49:12.670Z,435
2017-04-07T12:50:12.386Z,400
2017-04-07T12:51:12.376Z,275
2017-04-07T12:52:12.066Z,310
2017-04-07T12:53:12.062Z,280
2017-04-07T12:54:12.611Z,225
2017-04-07T12:55:12.353Z,225
2017-04-07T12:56:12.055Z,230
2017-04-07T12:57:12.341Z,225
2017-04-07T12:58:12.349Z,195
2017-04-07T12:59:12.581Z,230
2017-04-07T13:00:12.334Z,230
2017-04-07T13:01:12.328Z,210
2017-04-07T13:02:12.321Z,240
2017-04-07T13:03:12.316Z,235
2017-04-07T13:04:12.663Z,200
2017-04-07T13:05:12.333Z,180
2017-04-07T13:06:12.297Z,200
2017-04-07T13:07:12.297Z,180
2017-04-07T13:08:12.292Z,165
2017-04-07T13:09:12.539Z,190
2017-04-07T13:10:11.979Z,190
2017-04-07T13:11:12.271Z,185
2017-04-07T13:12:12.267Z,160
2017-04-07T13:13:12.266Z,165
2017-04-07T13:14:12.560Z,175
2017-04-07T13:15:12.259Z,175
2017-04-07T13:16:12.246Z,140
2017-04-07T13:17:12.244Z,150
2017-04-07T13:18:11.936Z,195
2017-04-07T13:19:12.189Z,170
2017-04-07T13:20:11.924Z,150
2017-04-07T13:21:12.220Z,150
2017-04-07T13:22:11.916Z,120
2017-04-07T13:23:11.920Z,130
2017-04-07T13:24:12.602Z,150
2017-04-07T13:25:12.200Z,155
2017-04-07T13:26:12.194Z,150
2017-04-07T13:27:12.187Z,155
2017-04-07T13:28:11.884Z,170
2017-04-07T13:29:12.464Z,165
2017-04-07T13:30:12.175Z,155
2017-04-07T13:31:12.166Z,150
2017-04-07T13:32:12.170Z,150
2017-04-07T13:33:12.159Z,160
2017-04-07T13:34:12.514Z,175
2017-04-07T13:35:11.878Z,180
2017-04-07T13:36:11.837Z,200
2017-04-07T13:37:12.134Z,195
2017-04-07T13:38:12.129Z,190
2017-04-07T13:39:12.379Z,200
2017-04-07T13:40:11.814Z,195
2017-04-07T13:41:12.109Z,185
2017-04-07T13:42:12.106Z,180
2017-04-07T13:43:12.102Z,185
2017-04-07T13:44:12.391Z,180
2017-04-07T13:45:12.086Z,200
2017-04-07T13:46:12.087Z,220
2017-04-07T13:47:12.074Z,210
2017-04-07T13:48:11.763Z,195
2017-04-07T13:49:12.316Z,200
2017-04-07T13:50:12.058Z,180
2017-04-07T13:51:12.052Z,165
2017-04-07T13:52:11.747Z,165
2017-04-07T13:53:11.735Z,170
2017-04-07T13:54:12.283Z,185
2017-04-07T13:55:12.030Z,195
2017-04-07T13:56:11.723Z,175
2017-04-07T13:57:12.021Z,170
2017-04-07T13:58:12.012Z,170
2017-04-07T13:59:12.256Z,165
2017-04-07T14:00:12.006Z,180
2017-04-07T14:01:12.000Z,150
2017-04-07T14:02:11.997Z,150
2017-04-07T14:03:11.683Z,150
2017-04-07T14:04:11.952Z,155
2017-04-07T14:05:11.976Z,150
2017-04-07T14:06:11.689Z,155
2017-04-07T14:07:11.971Z,155
2017-04-07T14:08:11.962Z,150
2017-04-07T14:09:12.261Z,160
2017-04-07T14:10:11.946Z,160
2017-04-07T14:11:11.946Z,180